sensor_id;sensor_type;location;lat;lon;timestamp;P1;durP1;ratioP1;P2;durP2;ratioP2
57467;SDS011;43311;51.196;7.518;2024-03-02T08:33:38;2.97;;;1.80;;
57467;SDS011;43311;51.196;7.518;2024-03-02T08:36:04;6.60;;;2.22;;
57467;SDS011;43311;51.196;7.518;2024-03-02T08:43:54;2.95;;;1.85;;
57467;SDS011;43311;51.196;7.518;2024-03-02T08:49:02;3.88;;;1.80;;
57467;SDS011;43311;51.196;7.518;2024-03-02T08:51:28;2.90;;;2.00;;
57467;SDS011;43311;51.196;7.518;2024-03-02T08:53:53;4.55;;;2.50;;
57467;SDS011;43311;51.196;7.518;2024-03-02T09:05:27;3.85;;;1.90;;
57467;SDS011;43311;51.196;7.518;2024-03-02T09:07:56;3.10;;;1.83;;
57467;SDS011;43311;51.196;7.518;2024-03-02T09:10:25;2.83;;;1.50;;
57467;SDS011;43311;51.196;7.518;2024-03-02T11:03:10;2.28;;;1.20;;
57467;SDS011;43311;51.196;7.518;2024-03-02T11:33:50;1.42;;;1.10;;
57467;SDS011;43311;51.196;7.518;2024-03-02T11:36:16;0.90;;;0.80;;
57467;SDS011;43311;51.196;7.518;2024-03-02T11:38:44;1.13;;;0.90;;
57467;SDS011;43311;51.196;7.518;2024-03-02T11:41:12;2.22;;;0.90;;
57467;SDS011;43311;51.196;7.518;2024-03-02T11:43:39;1.70;;;1.00;;
57467;SDS011;43311;51.196;7.518;2024-03-02T11:46:05;1.67;;;0.80;;
57467;SDS011;43311;51.196;7.518;2024-03-02T11:48:32;1.45;;;0.85;;
57467;SDS011;43311;51.196;7.518;2024-03-02T11:51:00;2.10;;;0.93;;
57467;SDS011;43311;51.196;7.518;2024-03-02T11:53:26;1.05;;;0.70;;
57467;SDS011;43311;51.196;7.518;2024-03-02T11:55:57;2.03;;;0.70;;
57467;SDS011;43311;51.196;7.518;2024-03-02T11:58:24;1.20;;;0.70;;
57467;SDS011;43311;51.196;7.518;2024-03-02T12:00:52;1.90;;;1.00;;
57467;SDS011;43311;51.196;7.518;2024-03-02T12:03:18;1.25;;;0.63;;
57467;SDS011;43311;51.196;7.518;2024-03-02T12:05:48;1.70;;;0.88;;
57467;SDS011;43311;51.196;7.518;2024-03-02T12:08:15;1.27;;;0.80;;
57467;SDS011;43311;51.196;7.518;2024-03-02T12:10:41;4.38;;;0.80;;
57467;SDS011;43311;51.196;7.518;2024-03-02T12:13:27;2.38;;;0.98;;
57467;SDS011;43311;51.196;7.518;2024-03-02T12:15:54;1.85;;;1.00;;
57467;SDS011;43311;51.196;7.518;2024-03-02T12:18:23;1.75;;;0.70;;
57467;SDS011;43311;51.196;7.518;2024-03-02T12:20:49;2.47;;;1.02;;
57467;SDS011;43311;51.196;7.518;2024-03-02T12:23:21;1.25;;;0.70;;
57467;SDS011;43311;51.196;7.518;2024-03-02T12:25:47;2.38;;;0.80;;
57467;SDS011;43311;51.196;7.518;2024-03-02T12:28:13;1.02;;;0.88;;
57467;SDS011;43311;51.196;7.518;2024-03-02T12:30:38;1.63;;;0.70;;
57467;SDS011;43311;51.196;7.518;2024-03-02T12:33:04;1.45;;;0.98;;
57467;SDS011;43311;51.196;7.518;2024-03-02T12:35:30;1.85;;;1.10;;
57467;SDS011;43311;51.196;7.518;2024-03-02T12:37:57;1.08;;;0.80;;
57467;SDS011;43311;51.196;7.518;2024-03-02T12:40:26;1.80;;;0.77;;
57467;SDS011;43311;51.196;7.518;2024-03-02T12:42:52;1.83;;;0.80;;
57467;SDS011;43311;51.196;7.518;2024-03-02T12:45:18;1.38;;;0.70;;
57467;SDS011;43311;51.196;7.518;2024-03-02T12:47:50;1.20;;;0.77;;
57467;SDS011;43311;51.196;7.518;2024-03-02T12:50:17;1.75;;;0.65;;
57467;SDS011;43311;51.196;7.518;2024-03-02T12:52:42;1.35;;;0.88;;
57467;SDS011;43311;51.196;7.518;2024-03-02T12:55:09;2.28;;;0.60;;
57467;SDS011;43311;51.196;7.518;2024-03-02T12:57:34;2.13;;;0.70;;
57467;SDS011;43311;51.196;7.518;2024-03-02T13:00:00;0.52;;;0.40;;
57467;SDS011;43311;51.196;7.518;2024-03-02T13:02:30;0.57;;;0.40;;
57467;SDS011;43311;51.196;7.518;2024-03-02T13:04:57;0.75;;;0.55;;
57467;SDS011;43311;51.196;7.518;2024-03-02T13:07:23;1.45;;;0.95;;
57467;SDS011;43311;51.196;7.518;2024-03-02T13:09:49;2.13;;;0.82;;
57467;SDS011;43311;51.196;7.518;2024-03-02T13:12:15;1.33;;;1.13;;
57467;SDS011;43311;51.196;7.518;2024-03-02T13:14:42;1.58;;;0.55;;
57467;SDS011;43311;51.196;7.518;2024-03-02T13:17:13;1.13;;;0.70;;
57467;SDS011;43311;51.196;7.518;2024-03-02T13:19:43;0.60;;;0.40;;
57467;SDS011;43311;51.196;7.518;2024-03-02T13:22:16;1.00;;;0.70;;
57467;SDS011;43311;51.196;7.518;2024-03-02T13:24:42;1.95;;;0.70;;
57467;SDS011;43311;51.196;7.518;2024-03-02T13:27:08;1.65;;;0.60;;
57467;SDS011;43311;51.196;7.518;2024-03-02T13:29:33;1.05;;;0.60;;
57467;SDS011;43311;51.196;7.518;2024-03-02T13:31:59;4.28;;;0.70;;
57467;SDS011;43311;51.196;7.518;2024-03-02T13:34:24;2.15;;;0.70;;
57467;SDS011;43311;51.196;7.518;2024-03-02T13:36:50;1.90;;;0.70;;
57467;SDS011;43311;51.196;7.518;2024-03-02T13:39:15;2.20;;;1.13;;
57467;SDS011;43311;51.196;7.518;2024-03-02T13:41:41;1.98;;;1.25;;
57467;SDS011;43311;51.196;7.518;2024-03-02T13:44:07;1.30;;;0.90;;
57467;SDS011;43311;51.196;7.518;2024-03-02T13:46:33;2.28;;;1.08;;
57467;SDS011;43311;51.196;7.518;2024-03-02T13:48:58;1.42;;;1.10;;
57467;SDS011;43311;51.196;7.518;2024-03-02T13:51:24;2.40;;;0.95;;
57467;SDS011;43311;51.196;7.518;2024-03-02T13:53:50;1.63;;;0.75;;
57467;SDS011;43311;51.196;7.518;2024-03-02T13:56:16;4.85;;;0.90;;
57467;SDS011;43311;51.196;7.518;2024-03-02T13:58:42;1.80;;;1.17;;
57467;SDS011;43311;51.196;7.518;2024-03-02T14:01:08;1.88;;;1.10;;
57467;SDS011;43311;51.196;7.518;2024-03-02T14:03:34;1.70;;;1.25;;
57467;SDS011;43311;51.196;7.518;2024-03-02T14:06:00;2.47;;;1.60;;
57467;SDS011;43311;51.196;7.518;2024-03-02T14:08:25;1.77;;;1.00;;
57467;SDS011;43311;51.196;7.518;2024-03-02T14:10:51;1.50;;;1.00;;
57467;SDS011;43311;51.196;7.518;2024-03-02T14:13:17;1.23;;;1.05;;
57467;SDS011;43311;51.196;7.518;2024-03-02T14:15:43;3.15;;;1.10;;
57467;SDS011;43311;51.196;7.518;2024-03-02T14:18:09;2.80;;;1.05;;
57467;SDS011;43311;51.196;7.518;2024-03-02T14:20:37;1.90;;;1.15;;
57467;SDS011;43311;51.196;7.518;2024-03-02T14:23:06;1.00;;;0.70;;
57467;SDS011;43311;51.196;7.518;2024-03-02T14:25:32;3.83;;;0.90;;
57467;SDS011;43311;51.196;7.518;2024-03-02T14:27:59;1.27;;;0.73;;
57467;SDS011;43311;51.196;7.518;2024-03-02T14:30:25;1.98;;;0.90;;
57467;SDS011;43311;51.196;7.518;2024-03-02T14:32:50;0.77;;;0.68;;
57467;SDS011;43311;51.196;7.518;2024-03-02T14:35:16;1.45;;;0.88;;
57467;SDS011;43311;51.196;7.518;2024-03-02T14:37:42;1.40;;;0.73;;
57467;SDS011;43311;51.196;7.518;2024-03-02T14:40:08;3.05;;;0.80;;
57467;SDS011;43311;51.196;7.518;2024-03-02T14:42:35;0.90;;;0.70;;
57467;SDS011;43311;51.196;7.518;2024-03-02T14:45:01;1.63;;;1.00;;
57467;SDS011;43311;51.196;7.518;2024-03-02T14:47:36;1.30;;;0.75;;
57467;SDS011;43311;51.196;7.518;2024-03-02T14:50:02;0.95;;;0.75;;
57467;SDS011;43311;51.196;7.518;2024-03-02T14:55:01;1.80;;;0.90;;
57467;SDS011;43311;51.196;7.518;2024-03-02T14:57:27;0.98;;;0.60;;
57467;SDS011;43311;51.196;7.518;2024-03-02T14:59:53;2.05;;;1.20;;
57467;SDS011;43311;51.196;7.518;2024-03-02T15:02:21;2.65;;;0.77;;
57467;SDS011;43311;51.196;7.518;2024-03-02T15:04:50;1.02;;;0.80;;
57467;SDS011;43311;51.196;7.518;2024-03-02T15:07:16;1.23;;;0.90;;
57467;SDS011;43311;51.196;7.518;2024-03-02T15:09:41;2.05;;;0.80;;
57467;SDS011;43311;51.196;7.518;2024-03-02T15:12:07;1.50;;;0.60;;
57467;SDS011;43311;51.196;7.518;2024-03-02T15:14:35;0.90;;;0.60;;
57467;SDS011;43311;51.196;7.518;2024-03-02T15:17:06;1.20;;;0.65;;
57467;SDS011;43311;51.196;7.518;2024-03-02T15:19:32;3.15;;;1.42;;
57467;SDS011;43311;51.196;7.518;2024-03-02T15:21:58;1.40;;;0.80;;
57467;SDS011;43311;51.196;7.518;2024-03-02T15:24:23;1.75;;;0.70;;
57467;SDS011;43311;51.196;7.518;2024-03-02T15:26:50;1.33;;;0.80;;
57467;SDS011;43311;51.196;7.518;2024-03-02T15:29:15;0.50;;;0.50;;
57467;SDS011;43311;51.196;7.518;2024-03-02T15:31:41;1.23;;;0.70;;
57467;SDS011;43311;51.196;7.518;2024-03-02T15:34:06;1.17;;;0.60;;
57467;SDS011;43311;51.196;7.518;2024-03-02T15:36:33;2.28;;;0.52;;
57467;SDS011;43311;51.196;7.518;2024-03-02T15:38:59;1.17;;;0.70;;
57467;SDS011;43311;51.196;7.518;2024-03-02T15:41:25;3.95;;;1.40;;
57467;SDS011;43311;51.196;7.518;2024-03-02T15:43:54;1.90;;;0.90;;
57467;SDS011;43311;51.196;7.518;2024-03-02T15:46:23;1.30;;;0.60;;
57467;SDS011;43311;51.196;7.518;2024-03-02T15:48:49;1.42;;;0.60;;
57467;SDS011;43311;51.196;7.518;2024-03-02T15:51:14;0.80;;;0.50;;
57467;SDS011;43311;51.196;7.518;2024-03-02T15:53:40;2.22;;;0.80;;
57467;SDS011;43311;51.196;7.518;2024-03-02T15:56:05;0.55;;;0.38;;
57467;SDS011;43311;51.196;7.518;2024-03-02T15:58:31;1.70;;;0.50;;
57467;SDS011;43311;51.196;7.518;2024-03-02T16:01:01;1.35;;;0.70;;
57467;SDS011;43311;51.196;7.518;2024-03-02T16:03:27;0.93;;;0.50;;
57467;SDS011;43311;51.196;7.518;2024-03-02T16:08:21;0.90;;;0.60;;
57467;SDS011;43311;51.196;7.518;2024-03-02T16:10:46;0.73;;;0.60;;
57467;SDS011;43311;51.196;7.518;2024-03-02T16:13:12;1.90;;;0.47;;
57467;SDS011;43311;51.196;7.518;2024-03-02T16:15:38;1.08;;;0.60;;
57467;SDS011;43311;51.196;7.518;2024-03-02T16:18:06;0.60;;;0.40;;
57467;SDS011;43311;51.196;7.518;2024-03-02T16:20:31;2.10;;;0.60;;
57467;SDS011;43311;51.196;7.518;2024-03-02T16:22:57;0.82;;;0.50;;
57467;SDS011;43311;51.196;7.518;2024-03-02T16:25:23;1.10;;;0.50;;
57467;SDS011;43311;51.196;7.518;2024-03-02T16:27:52;1.02;;;0.50;;
57467;SDS011;43311;51.196;7.518;2024-03-02T16:30:21;1.77;;;0.50;;
57467;SDS011;43311;51.196;7.518;2024-03-02T16:32:49;0.90;;;0.47;;
57467;SDS011;43311;51.196;7.518;2024-03-02T16:35:15;1.48;;;0.50;;
57467;SDS011;43311;51.196;7.518;2024-03-02T16:37:41;1.00;;;0.80;;
57467;SDS011;43311;51.196;7.518;2024-03-02T16:40:09;0.95;;;0.30;;
57467;SDS011;43311;51.196;7.518;2024-03-02T16:42:35;1.05;;;0.50;;
57467;SDS011;43311;51.196;7.518;2024-03-02T16:45:01;2.92;;;0.55;;
57467;SDS011;43311;51.196;7.518;2024-03-02T16:47:26;0.73;;;0.47;;
57467;SDS011;43311;51.196;7.518;2024-03-02T16:49:52;0.55;;;0.50;;
57467;SDS011;43311;51.196;7.518;2024-03-02T16:52:17;2.92;;;0.40;;
57467;SDS011;43311;51.196;7.518;2024-03-02T16:54:43;2.67;;;0.47;;
57467;SDS011;43311;51.196;7.518;2024-03-02T16:57:09;0.68;;;0.32;;
57467;SDS011;43311;51.196;7.518;2024-03-02T16:59:35;1.45;;;0.52;;
57467;SDS011;43311;51.196;7.518;2024-03-02T17:02:01;1.08;;;0.52;;
57467;SDS011;43311;51.196;7.518;2024-03-02T17:04:26;2.00;;;0.52;;
57467;SDS011;43311;51.196;7.518;2024-03-02T17:06:52;2.45;;;0.73;;
57467;SDS011;43311;51.196;7.518;2024-03-02T17:09:18;3.65;;;0.90;;
57467;SDS011;43311;51.196;7.518;2024-03-02T17:11:43;1.92;;;0.85;;
57467;SDS011;43311;51.196;7.518;2024-03-02T17:14:09;1.13;;;0.70;;
57467;SDS011;43311;51.196;7.518;2024-03-02T17:16:34;2.90;;;0.70;;
57467;SDS011;43311;51.196;7.518;2024-03-02T17:19:00;0.98;;;0.82;;
57467;SDS011;43311;51.196;7.518;2024-03-02T17:21:25;2.17;;;0.95;;
57467;SDS011;43311;51.196;7.518;2024-03-02T17:23:52;6.35;;;3.40;;
57467;SDS011;43311;51.196;7.518;2024-03-02T17:26:21;2.75;;;1.13;;
57467;SDS011;43311;51.196;7.518;2024-03-02T17:28:47;3.20;;;1.52;;
57467;SDS011;43311;51.196;7.518;2024-03-02T17:31:12;2.20;;;1.30;;
57467;SDS011;43311;51.196;7.518;2024-03-02T17:33:37;3.20;;;1.33;;
57467;SDS011;43311;51.196;7.518;2024-03-02T17:36:03;2.28;;;1.20;;
57467;SDS011;43311;51.196;7.518;2024-03-02T17:38:29;2.72;;;1.50;;
57467;SDS011;43311;51.196;7.518;2024-03-02T17:40:54;3.53;;;1.85;;
57467;SDS011;43311;51.196;7.518;2024-03-02T17:43:21;2.80;;;1.48;;
57467;SDS011;43311;51.196;7.518;2024-03-02T17:45:47;4.00;;;1.77;;
57467;SDS011;43311;51.196;7.518;2024-03-02T17:48:12;2.92;;;1.65;;
57467;SDS011;43311;51.196;7.518;2024-03-02T17:50:39;3.20;;;2.50;;
57467;SDS011;43311;51.196;7.518;2024-03-02T17:53:04;3.70;;;2.80;;
57467;SDS011;43311;51.196;7.518;2024-03-02T17:55:30;3.55;;;2.40;;
57467;SDS011;43311;51.196;7.518;2024-03-02T17:57:56;4.50;;;2.70;;
57467;SDS011;43311;51.196;7.518;2024-03-02T18:00:21;4.07;;;2.10;;
57467;SDS011;43311;51.196;7.518;2024-03-02T18:03:05;3.08;;;1.67;;
57467;SDS011;43311;51.196;7.518;2024-03-02T18:09:03;2.10;;;1.25;;
57467;SDS011;43311;51.196;7.518;2024-03-02T18:12:17;2.80;;;1.08;;
57467;SDS011;43311;51.196;7.518;2024-03-02T18:14:45;3.38;;;1.35;;
57467;SDS011;43311;51.196;7.518;2024-03-02T18:17:11;3.67;;;1.90;;
57467;SDS011;43311;51.196;7.518;2024-03-02T18:19:36;1.95;;;1.23;;
57467;SDS011;43311;51.196;7.518;2024-03-02T18:22:02;3.40;;;1.50;;
57467;SDS011;43311;51.196;7.518;2024-03-02T18:24:28;5.28;;;2.05;;
57467;SDS011;43311;51.196;7.518;2024-03-02T18:27:00;3.38;;;1.70;;
57467;SDS011;43311;51.196;7.518;2024-03-02T18:29:26;3.95;;;2.30;;
57467;SDS011;43311;51.196;7.518;2024-03-02T18:31:51;4.45;;;1.65;;
57467;SDS011;43311;51.196;7.518;2024-03-02T18:34:17;4.53;;;1.95;;
57467;SDS011;43311;51.196;7.518;2024-03-02T18:36:42;4.28;;;1.95;;
57467;SDS011;43311;51.196;7.518;2024-03-02T18:39:08;6.35;;;3.17;;
57467;SDS011;43311;51.196;7.518;2024-03-02T18:41:35;6.55;;;1.90;;
57467;SDS011;43311;51.196;7.518;2024-03-02T18:44:01;16.25;;;5.07;;
57467;SDS011;43311;51.196;7.518;2024-03-02T18:46:28;10.30;;;3.40;;
57467;SDS011;43311;51.196;7.518;2024-03-02T18:48:54;5.18;;;2.15;;
57467;SDS011;43311;51.196;7.518;2024-03-02T18:51:20;4.57;;;2.08;;
57467;SDS011;43311;51.196;7.518;2024-03-02T18:53:53;6.05;;;3.00;;
57467;SDS011;43311;51.196;7.518;2024-03-02T18:56:18;4.65;;;1.90;;
57467;SDS011;43311;51.196;7.518;2024-03-02T18:58:48;4.75;;;2.20;;
57467;SDS011;43311;51.196;7.518;2024-03-02T19:01:21;5.20;;;2.60;;
57467;SDS011;43311;51.196;7.518;2024-03-02T19:03:47;4.40;;;1.95;;
57467;SDS011;43311;51.196;7.518;2024-03-02T19:06:14;2.58;;;1.75;;
57467;SDS011;43311;51.196;7.518;2024-03-02T19:08:40;3.80;;;1.85;;
57467;SDS011;43311;51.196;7.518;2024-03-02T19:11:11;2.75;;;1.80;;
57467;SDS011;43311;51.196;7.518;2024-03-02T19:13:40;5.05;;;1.92;;
57467;SDS011;43311;51.196;7.518;2024-03-02T19:16:13;3.20;;;1.90;;
57467;SDS011;43311;51.196;7.518;2024-03-02T19:18:39;4.13;;;1.98;;
57467;SDS011;43311;51.196;7.518;2024-03-02T19:21:06;4.25;;;2.10;;
57467;SDS011;43311;51.196;7.518;2024-03-02T19:23:32;4.00;;;2.58;;
57467;SDS011;43311;51.196;7.518;2024-03-02T19:25:58;4.43;;;2.60;;
57467;SDS011;43311;51.196;7.518;2024-03-02T19:28:23;3.80;;;2.35;;
57467;SDS011;43311;51.196;7.518;2024-03-02T19:30:49;3.55;;;1.98;;
57467;SDS011;43311;51.196;7.518;2024-03-02T19:33:15;5.13;;;2.20;;
57467;SDS011;43311;51.196;7.518;2024-03-02T19:35:41;2.83;;;2.03;;
57467;SDS011;43311;51.196;7.518;2024-03-02T19:38:06;4.07;;;2.83;;
57467;SDS011;43311;51.196;7.518;2024-03-02T19:40:32;6.63;;;2.53;;
57467;SDS011;43311;51.196;7.518;2024-03-02T19:42:58;3.67;;;2.22;;
57467;SDS011;43311;51.196;7.518;2024-03-02T19:45:24;3.33;;;2.08;;
57467;SDS011;43311;51.196;7.518;2024-03-02T19:47:50;4.55;;;2.60;;
57467;SDS011;43311;51.196;7.518;2024-03-02T19:50:15;4.30;;;2.63;;
57467;SDS011;43311;51.196;7.518;2024-03-02T19:52:46;7.05;;;2.45;;
57467;SDS011;43311;51.196;7.518;2024-03-02T19:55:14;4.93;;;2.25;;
57467;SDS011;43311;51.196;7.518;2024-03-02T19:57:43;5.78;;;2.83;;
57467;SDS011;43311;51.196;7.518;2024-03-02T20:00:15;7.65;;;2.97;;
57467;SDS011;43311;51.196;7.518;2024-03-02T20:02:44;5.53;;;2.95;;
57467;SDS011;43311;51.196;7.518;2024-03-02T20:05:10;8.95;;;2.88;;
57467;SDS011;43311;51.196;7.518;2024-03-02T20:07:37;5.55;;;3.30;;
57467;SDS011;43311;51.196;7.518;2024-03-02T20:10:05;6.90;;;3.30;;
57467;SDS011;43311;51.196;7.518;2024-03-02T20:12:32;6.43;;;2.80;;
57467;SDS011;43311;51.196;7.518;2024-03-02T20:15:13;6.75;;;3.38;;
57467;SDS011;43311;51.196;7.518;2024-03-02T20:17:38;5.65;;;3.45;;
57467;SDS011;43311;51.196;7.518;2024-03-02T20:20:05;7.82;;;3.47;;
57467;SDS011;43311;51.196;7.518;2024-03-02T20:22:34;4.65;;;3.10;;
57467;SDS011;43311;51.196;7.518;2024-03-02T20:24:59;5.38;;;2.80;;
57467;SDS011;43311;51.196;7.518;2024-03-02T20:27:25;6.72;;;3.58;;
57467;SDS011;43311;51.196;7.518;2024-03-02T20:30:01;5.82;;;3.70;;
57467;SDS011;43311;51.196;7.518;2024-03-02T20:32:28;5.97;;;3.50;;
57467;SDS011;43311;51.196;7.518;2024-03-02T20:34:54;7.22;;;3.53;;
57467;SDS011;43311;51.196;7.518;2024-03-02T20:37:19;5.28;;;3.20;;
57467;SDS011;43311;51.196;7.518;2024-03-02T20:39:58;5.40;;;2.95;;
57467;SDS011;43311;51.196;7.518;2024-03-02T20:42:26;5.25;;;3.15;;
57467;SDS011;43311;51.196;7.518;2024-03-02T20:44:52;8.15;;;3.22;;
57467;SDS011;43311;51.196;7.518;2024-03-02T20:47:26;5.78;;;3.17;;
57467;SDS011;43311;51.196;7.518;2024-03-02T20:49:52;6.82;;;3.67;;
57467;SDS011;43311;51.196;7.518;2024-03-02T21:19:34;5.15;;;3.13;;
57467;SDS011;43311;51.196;7.518;2024-03-02T21:22:49;5.68;;;3.10;;
57467;SDS011;43311;51.196;7.518;2024-03-02T21:31:04;7.57;;;4.13;;
57467;SDS011;43311;51.196;7.518;2024-03-02T21:33:35;8.25;;;4.00;;
57467;SDS011;43311;51.196;7.518;2024-03-02T21:36:02;7.63;;;3.83;;
57467;SDS011;43311;51.196;7.518;2024-03-02T21:38:29;7.43;;;3.80;;
57467;SDS011;43311;51.196;7.518;2024-03-02T21:40:58;7.75;;;4.18;;
57467;SDS011;43311;51.196;7.518;2024-03-02T21:54:06;7.57;;;3.83;;
57467;SDS011;43311;51.196;7.518;2024-03-02T22:00:12;8.60;;;4.05;;
57467;SDS011;43311;51.196;7.518;2024-03-02T22:02:51;9.27;;;3.97;;
